Time;durP1;ratioP1;P1;durP2;ratioP2;P2;SDS_P1;SDS_P2;PMS_P1;PMS_P2;Temp;Humidity;BMP_temperature;BMP_pressure;BME280_temperature;BME280_humidity;BME280_pressure;Samples;Min_cycle;Max_cycle;Signal;HPM_P1;HPM_P2
2022/03/31 00:01:18;;;;;;;20.73;9.23;;;;;;;;;;5086452;28;20084;-66
2022/03/31 00:03:48;;;;;;;15.15;8.73;;;;;;;;;;5079363;28;20055;-66
2022/03/31 00:06:16;;;;;;;17.75;8.43;;;;;;;;;;5073606;28;20094;-66
2022/03/31 00:08:45;;;;;;;17.92;9.93;;;;;;;;;;5077639;28;20207;-66
2022/03/31 00:11:13;;;;;;;17.65;8.75;;;;;;;;;;5087907;28;20083;-66
2022/03/31 00:13:42;;;;;;;20.27;9.60;;;;;;;;;;5066835;28;20041;-66
2022/03/31 00:16:10;;;;;;;17.13;8.82;;;;;;;;;;5075129;28;20080;-66
2022/03/31 00:18:39;;;;;;;22.60;10.50;;;;;;;;;;5077206;28;20066;-66
2022/03/31 00:21:09;;;;;;;20.08;10.73;;;;;;;;;;5071161;28;20076;-65
2022/03/31 00:23:37;;;;;;;22.98;11.23;;;;;;;;;;5079994;28;20044;-66
2022/03/31 00:26:06;;;;;;;22.50;9.85;;;;;;;;;;5078250;28;20392;-66
2022/03/31 00:28:35;;;;;;;23.05;11.23;;;;;;;;;;5075349;28;20179;-66
2022/03/31 00:31:06;;;;;;;20.60;9.80;;;;;;;;;;5069970;28;20055;-66
2022/03/31 00:33:34;;;;;;;20.83;11.00;;;;;;;;;;5081016;28;20037;-66
2022/03/31 00:36:05;;;;;;;23.63;10.27;;;;;;;;;;5065354;28;20047;-66
2022/03/31 00:38:34;;;;;;;26.60;10.10;;;;;;;;;;5079239;28;20058;-66
2022/03/31 00:41:05;;;;;;;24.20;11.45;;;;;;;;;;5074243;28;20396;-66
2022/03/31 00:43:33;;;;;;;24.02;11.52;;;;;;;;;;5065195;28;20131;-66
2022/03/31 00:46:01;;;;;;;22.85;11.07;;;;;;;;;;5076140;28;20071;-66
2022/03/31 00:48:32;;;;;;;22.27;11.35;;;;;;;;;;5073807;28;20056;-66
2022/03/31 00:51:00;;;;;;;22.42;11.13;;;;;;;;;;5078076;28;20131;-66
2022/03/31 00:53:29;;;;;;;20.88;11.35;;;;;;;;;;5072754;28;20064;-66
2022/03/31 00:56:00;;;;;;;22.17;10.45;;;;;;;;;;5075013;28;20045;-66
2022/03/31 00:58:29;;;;;;;22.23;10.77;;;;;;;;;;5069263;28;20098;-66
2022/03/31 01:00:57;;;;;;;22.33;10.75;;;;;;;;;;5073812;28;20052;-66
2022/03/31 01:03:26;;;;;;;24.02;11.60;;;;;;;;;;5071584;28;20175;-66
2022/03/31 01:05:54;;;;;;;24.13;11.18;;;;;;;;;;5062835;28;20467;-66
2022/03/31 01:08:23;;;;;;;19.77;10.52;;;;;;;;;;5075315;28;20066;-65
2022/03/31 01:10:53;;;;;;;26.55;11.50;;;;;;;;;;5067505;28;20070;-66
2022/03/31 01:13:23;;;;;;;24.48;11.02;;;;;;;;;;5076032;28;20135;-66
2022/03/31 01:15:51;;;;;;;23.35;11.07;;;;;;;;;;5062898;28;20487;-66
2022/03/31 01:18:20;;;;;;;25.85;11.40;;;;;;;;;;5063028;28;20094;-67
2022/03/31 01:20:48;;;;;;;23.65;10.73;;;;;;;;;;5071136;28;20053;-66
2022/03/31 01:23:18;;;;;;;20.83;10.90;;;;;;;;;;5065144;28;20127;-66
2022/03/31 01:25:46;;;;;;;23.15;11.15;;;;;;;;;;5070859;28;20072;-66
2022/03/31 01:28:14;;;;;;;24.08;11.35;;;;;;;;;;5070654;28;20139;-66
2022/03/31 01:30:43;;;;;;;28.70;11.95;;;;;;;;;;5072916;28;20167;-65
2022/03/31 01:33:11;;;;;;;22.85;10.57;;;;;;;;;;5066531;28;20098;-67
2022/03/31 01:35:40;;;;;;;27.23;12.52;;;;;;;;;;5056553;28;20540;-66
2022/03/31 01:38:08;;;;;;;24.85;11.93;;;;;;;;;;5073015;28;20048;-66
2022/03/31 01:40:38;;;;;;;23.75;11.02;;;;;;;;;;5074642;28;20060;-67
2022/03/31 01:43:08;;;;;;;22.38;11.27;;;;;;;;;;5089390;28;20218;-66
2022/03/31 01:45:37;;;;;;;22.67;10.73;;;;;;;;;;5092317;28;20083;-66
2022/03/31 01:48:06;;;;;;;24.58;11.15;;;;;;;;;;5090565;28;20441;-66
2022/03/31 01:50:35;;;;;;;26.98;11.77;;;;;;;;;;5091194;28;20130;-66
2022/03/31 01:53:03;;;;;;;22.65;10.82;;;;;;;;;;5089617;28;20040;-65
2022/03/31 01:55:31;;;;;;;26.08;11.93;;;;;;;;;;5089427;28;20135;-66
2022/03/31 01:58:01;;;;;;;21.83;11.02;;;;;;;;;;5090432;28;20101;-66
2022/03/31 02:00:29;;;;;;;24.08;10.93;;;;;;;;;;5089921;28;20055;-66
2022/03/31 02:02:59;;;;;;;25.23;10.98;;;;;;;;;;5090622;28;20075;-65
2022/03/31 02:05:27;;;;;;;21.73;10.85;;;;;;;;;;5090878;28;20044;-66
2022/03/31 02:07:56;;;;;;;24.90;11.82;;;;;;;;;;5090180;28;20082;-65
2022/03/31 02:10:26;;;;;;;22.00;10.25;;;;;;;;;;5090706;28;20106;-66
2022/03/31 02:12:54;;;;;;;21.98;10.10;;;;;;;;;;5084933;28;20044;-66
2022/03/31 02:15:24;;;;;;;24.02;11.35;;;;;;;;;;5082754;28;20043;-66
2022/03/31 02:17:53;;;;;;;21.92;10.10;;;;;;;;;;5089650;28;20067;-65
2022/03/31 02:20:22;;;;;;;21.60;10.38;;;;;;;;;;5090470;28;20498;-66
2022/03/31 02:22:50;;;;;;;19.48;9.35;;;;;;;;;;5089551;28;20095;-66
2022/03/31 02:25:19;;;;;;;18.48;9.38;;;;;;;;;;5090745;28;20087;-66
2022/03/31 02:27:51;;;;;;;20.35;9.57;;;;;;;;;;5088368;28;20079;-65
2022/03/31 02:30:19;;;;;;;21.75;10.20;;;;;;;;;;5089238;28;20126;-66
2022/03/31 02:32:49;;;;;;;18.77;9.55;;;;;;;;;;5088039;28;20134;-66
2022/03/31 02:35:18;;;;;;;19.80;9.18;;;;;;;;;;5089603;28;20131;-66
2022/03/31 02:37:46;;;;;;;21.38;9.98;;;;;;;;;;5088970;28;20143;-66
2022/03/31 02:40:14;;;;;;;20.98;9.77;;;;;;;;;;5065282;28;20477;-66
2022/03/31 02:42:42;;;;;;;22.40;10.15;;;;;;;;;;5069737;28;20459;-66
2022/03/31 02:45:11;;;;;;;20.80;10.30;;;;;;;;;;5068945;28;20056;-66
2022/03/31 02:47:39;;;;;;;19.85;9.57;;;;;;;;;;5080374;28;20131;-65
2022/03/31 02:50:09;;;;;;;19.45;9.48;;;;;;;;;;5076305;28;20123;-65
2022/03/31 02:55:27;;;;;;;19.65;9.60;;;;;;;;;;5043083;28;20044;-66
2022/03/31 02:57:56;;;;;;;17.70;8.38;;;;;;;;;;5072254;28;20072;-66
2022/03/31 03:00:25;;;;;;;21.35;9.65;;;;;;;;;;5067721;28;20124;-66
2022/03/31 03:02:53;;;;;;;23.10;9.10;;;;;;;;;;5070526;28;20123;-65
2022/03/31 03:05:23;;;;;;;22.80;10.48;;;;;;;;;;5065855;28;20048;-66
2022/03/31 03:07:51;;;;;;;22.00;9.88;;;;;;;;;;5073993;28;20080;-66
2022/03/31 03:10:20;;;;;;;23.08;10.85;;;;;;;;;;5060003;28;20084;-66
2022/03/31 03:12:49;;;;;;;23.33;10.80;;;;;;;;;;5058985;28;20047;-66
2022/03/31 03:15:18;;;;;;;27.48;12.18;;;;;;;;;;5067692;28;20076;-66
2022/03/31 03:17:48;;;;;;;31.52;12.80;;;;;;;;;;5073096;28;20058;-66
2022/03/31 03:20:17;;;;;;;28.98;12.77;;;;;;;;;;5088344;28;20110;-66
2022/03/31 03:22:48;;;;;;;29.77;11.98;;;;;;;;;;5070224;28;20131;-66
2022/03/31 03:25:17;;;;;;;32.67;13.77;;;;;;;;;;5086389;28;20132;-66
2022/03/31 03:27:46;;;;;;;30.38;13.30;;;;;;;;;;5073267;28;20070;-65
2022/03/31 03:30:15;;;;;;;34.25;13.80;;;;;;;;;;5071207;28;20080;-65
2022/03/31 03:32:43;;;;;;;32.10;13.68;;;;;;;;;;5068566;28;20144;-66
2022/03/31 03:35:11;;;;;;;37.85;13.43;;;;;;;;;;5045363;28;20128;-66
2022/03/31 03:37:40;;;;;;;29.17;13.13;;;;;;;;;;5052249;28;20173;-66
2022/03/31 03:40:12;;;;;;;36.22;13.52;;;;;;;;;;5056691;28;20043;-66
2022/03/31 03:42:41;;;;;;;36.17;13.07;;;;;;;;;;5066903;28;20523;-66
2022/03/31 03:45:10;;;;;;;33.35;13.10;;;;;;;;;;5067540;28;20036;-66
2022/03/31 03:47:38;;;;;;;36.42;13.80;;;;;;;;;;5072663;28;20040;-66
2022/03/31 03:50:07;;;;;;;36.10;13.45;;;;;;;;;;5070955;28;20147;-65
2022/03/31 03:52:35;;;;;;;35.78;14.18;;;;;;;;;;5077441;28;20123;-65
2022/03/31 03:55:04;;;;;;;34.70;14.10;;;;;;;;;;5071486;28;20372;-66
2022/03/31 03:57:34;;;;;;;32.78;13.02;;;;;;;;;;5065818;28;20539;-66
2022/03/31 04:00:02;;;;;;;30.45;12.88;;;;;;;;;;5067820;28;20072;-66
2022/03/31 04:02:31;;;;;;;32.72;13.73;;;;;;;;;;5066285;28;20148;-66
2022/03/31 04:04:59;;;;;;;37.67;14.35;;;;;;;;;;5072084;28;20325;-65
2022/03/31 04:07:27;;;;;;;37.75;14.77;;;;;;;;;;5068460;28;20123;-65
2022/03/31 04:09:55;;;;;;;38.42;15.20;;;;;;;;;;5065782;28;20094;-65
2022/03/31 04:12:24;;;;;;;38.40;14.88;;;;;;;;;;5065987;28;20041;-65
2022/03/31 04:14:53;;;;;;;34.30;14.50;;;;;;;;;;5065531;28;20052;-65
2022/03/31 04:17:22;;;;;;;36.10;14.75;;;;;;;;;;5068314;28;20531;-66
2022/03/31 04:19:50;;;;;;;34.72;14.23;;;;;;;;;;5067596;28;20123;-66
2022/03/31 04:22:18;;;;;;;39.42;14.82;;;;;;;;;;5065076;28;20128;-65
2022/03/31 04:24:46;;;;;;;32.97;14.52;;;;;;;;;;5071927;28;20182;-65
2022/03/31 04:27:15;;;;;;;37.30;14.63;;;;;;;;;;5052674;28;20048;-66
2022/03/31 04:29:43;;;;;;;36.05;13.95;;;;;;;;;;5048435;28;20247;-66
2022/03/31 04:32:13;;;;;;;35.58;14.80;;;;;;;;;;5067540;28;20098;-66
2022/03/31 04:34:41;;;;;;;39.00;14.90;;;;;;;;;;5049621;28;20049;-66
2022/03/31 04:37:10;;;;;;;43.10;17.42;;;;;;;;;;5067929;28;20132;-67
2022/03/31 04:39:38;;;;;;;45.30;15.23;;;;;;;;;;5067681;28;20550;-64
2022/03/31 04:42:07;;;;;;;38.30;14.68;;;;;;;;;;5064927;28;20128;-65
2022/03/31 04:44:37;;;;;;;43.58;14.68;;;;;;;;;;5065680;28;20072;-64
2022/03/31 04:47:06;;;;;;;41.17;15.90;;;;;;;;;;5067009;28;20127;-65
2022/03/31 04:49:35;;;;;;;44.80;15.43;;;;;;;;;;5065624;28;20495;-65
2022/03/31 04:52:04;;;;;;;37.50;15.55;;;;;;;;;;5067903;28;20075;-65
2022/03/31 04:54:32;;;;;;;42.03;15.07;;;;;;;;;;5065118;28;20143;-65
2022/03/31 04:57:01;;;;;;;39.75;15.35;;;;;;;;;;5068531;28;20100;-65
2022/03/31 04:59:29;;;;;;;39.58;15.32;;;;;;;;;;5055553;28;20353;-65
2022/03/31 05:01:57;;;;;;;42.00;15.23;;;;;;;;;;5064655;28;20419;-65
2022/03/31 05:04:25;;;;;;;41.42;15.85;;;;;;;;;;5072316;28;20454;-65
2022/03/31 05:06:56;;;;;;;40.78;15.98;;;;;;;;;;5066875;28;20056;-65
2022/03/31 05:09:25;;;;;;;43.30;15.50;;;;;;;;;;5069472;28;20044;-65
2022/03/31 05:11:53;;;;;;;37.92;15.98;;;;;;;;;;5081822;28;20127;-65
2022/03/31 05:14:21;;;;;;;41.20;16.02;;;;;;;;;;5073667;28;20139;-65
2022/03/31 05:16:50;;;;;;;38.88;15.70;;;;;;;;;;5061450;28;20281;-65
2022/03/31 05:19:18;;;;;;;41.72;15.35;;;;;;;;;;5054601;28;20053;-66
2022/03/31 05:21:47;;;;;;;38.38;15.45;;;;;;;;;;5067309;28;20045;-66
2022/03/31 05:24:16;;;;;;;40.42;15.93;;;;;;;;;;5066833;28;20055;-66
2022/03/31 05:26:45;;;;;;;38.50;14.45;;;;;;;;;;5066145;28;20048;-65
2022/03/31 05:29:14;;;;;;;37.50;14.68;;;;;;;;;;5055253;28;20059;-66
2022/03/31 05:31:43;;;;;;;38.35;15.82;;;;;;;;;;5061795;28;20052;-65
2022/03/31 05:34:11;;;;;;;43.08;16.20;;;;;;;;;;5058164;28;20183;-65
2022/03/31 05:36:39;;;;;;;41.00;14.75;;;;;;;;;;5061637;28;20048;-65
2022/03/31 05:39:11;;;;;;;36.13;14.48;;;;;;;;;;5055203;28;20048;-65
2022/03/31 05:41:41;;;;;;;38.08;14.63;;;;;;;;;;5073102;28;20135;-65
2022/03/31 05:44:09;;;;;;;42.13;15.73;;;;;;;;;;5067991;28;20475;-66
2022/03/31 05:46:39;;;;;;;38.05;15.75;;;;;;;;;;5077075;28;20173;-66
2022/03/31 05:49:07;;;;;;;40.17;16.45;;;;;;;;;;5070272;28;20063;-65
2022/03/31 05:51:36;;;;;;;43.92;15.15;;;;;;;;;;5064377;28;20518;-65
2022/03/31 05:54:04;;;;;;;38.00;15.25;;;;;;;;;;5056610;28;20339;-66
2022/03/31 05:56:34;;;;;;;35.55;14.85;;;;;;;;;;5055297;28;20574;-66
2022/03/31 05:59:03;;;;;;;37.05;14.73;;;;;;;;;;5064782;28;20059;-66
2022/03/31 06:01:32;;;;;;;37.25;14.85;;;;;;;;;;5064825;28;20456;-66
2022/03/31 06:04:00;;;;;;;39.88;15.10;;;;;;;;;;5065391;28;20216;-66
2022/03/31 06:06:29;;;;;;;37.15;13.57;;;;;;;;;;5063429;28;20436;-66
2022/03/31 06:08:57;;;;;;;31.50;13.77;;;;;;;;;;5063671;28;20478;-67
2022/03/31 06:11:25;;;;;;;37.03;14.18;;;;;;;;;;5060963;28;20509;-65
2022/03/31 06:13:54;;;;;;;35.90;13.88;;;;;;;;;;5061707;28;20044;-66
2022/03/31 06:16:24;;;;;;;35.95;14.80;;;;;;;;;;5057711;28;20080;-66
2022/03/31 06:18:52;;;;;;;34.75;13.90;;;;;;;;;;5049703;28;20045;-66
2022/03/31 06:21:20;;;;;;;31.52;13.52;;;;;;;;;;5053938;28;20140;-66
2022/03/31 06:23:49;;;;;;;33.45;13.38;;;;;;;;;;5061947;28;20052;-65
2022/03/31 06:26:17;;;;;;;36.40;14.77;;;;;;;;;;5061508;28;20052;-66
2022/03/31 06:28:46;;;;;;;34.63;14.25;;;;;;;;;;5049024;28;20049;-67
2022/03/31 06:31:14;;;;;;;33.45;13.77;;;;;;;;;;5067346;28;20148;-66
2022/03/31 06:33:44;;;;;;;36.30;14.35;;;;;;;;;;5064724;28;20044;-66
2022/03/31 06:36:12;;;;;;;37.45;16.00;;;;;;;;;;5075370;28;20084;-66
2022/03/31 06:38:41;;;;;;;38.05;14.63;;;;;;;;;;5085958;28;20072;-66
2022/03/31 06:41:10;;;;;;;39.83;15.65;;;;;;;;;;5088880;28;20197;-66
2022/03/31 06:43:39;;;;;;;40.00;15.88;;;;;;;;;;5091018;28;20070;-66
2022/03/31 06:46:08;;;;;;;39.08;15.93;;;;;;;;;;5089009;28;20498;-66
2022/03/31 06:48:37;;;;;;;36.53;14.45;;;;;;;;;;5089615;28;20083;-66
2022/03/31 06:51:11;;;;;;;38.08;15.38;;;;;;;;;;5091283;28;20072;-66
2022/03/31 06:53:39;;;;;;;33.42;14.48;;;;;;;;;;5084171;28;20483;-66
2022/03/31 06:56:08;;;;;;;37.05;14.75;;;;;;;;;;5094715;28;20135;-66
2022/03/31 06:58:36;;;;;;;37.25;14.57;;;;;;;;;;5089016;28;20075;-66
2022/03/31 07:01:08;;;;;;;32.38;14.15;;;;;;;;;;5090469;28;20123;-66
2022/03/31 07:03:37;;;;;;;36.05;13.68;;;;;;;;;;5088042;28;20043;-66
2022/03/31 07:06:06;;;;;;;35.83;14.20;;;;;;;;;;5088911;28;20052;-66
2022/03/31 07:08:36;;;;;;;36.42;14.65;;;;;;;;;;5089559;28;20035;-66
2022/03/31 07:11:08;;;;;;;30.85;13.48;;;;;;;;;;5090006;28;20044;-66
2022/03/31 07:13:37;;;;;;;34.70;13.68;;;;;;;;;;5089884;28;20048;-65
2022/03/31 07:16:08;;;;;;;31.50;14.30;;;;;;;;;;5091263;28;20052;-66
2022/03/31 07:18:37;;;;;;;27.40;13.07;;;;;;;;;;5088302;28;20047;-66
2022/03/31 07:21:09;;;;;;;34.03;13.27;;;;;;;;;;5089883;28;20071;-65
2022/03/31 07:23:40;;;;;;;30.33;12.55;;;;;;;;;;5088162;28;20055;-66
2022/03/31 07:26:10;;;;;;;26.60;12.30;;;;;;;;;;5089029;28;20467;-66
2022/03/31 07:28:39;;;;;;;36.88;12.98;;;;;;;;;;5086933;28;20040;-66
2022/03/31 07:31:08;;;;;;;30.52;12.93;;;;;;;;;;5087944;28;20138;-65
2022/03/31 07:33:37;;;;;;;32.35;12.82;;;;;;;;;;5089079;28;20048;-66
2022/03/31 07:36:10;;;;;;;32.53;13.63;;;;;;;;;;5083334;28;20056;-66
2022/03/31 07:38:40;;;;;;;31.58;13.48;;;;;;;;;;5080699;28;20072;-66
2022/03/31 07:41:11;;;;;;;32.92;13.50;;;;;;;;;;5089346;28;20499;-66
2022/03/31 07:43:42;;;;;;;32.70;14.18;;;;;;;;;;5089493;28;20044;-66
2022/03/31 07:46:10;;;;;;;32.65;15.20;;;;;;;;;;5089460;28;20078;-66
2022/03/31 07:48:39;;;;;;;32.13;13.50;;;;;;;;;;5089234;28;20048;-66
2022/03/31 07:51:08;;;;;;;36.15;14.57;;;;;;;;;;5090013;28;20410;-65
2022/03/31 07:53:37;;;;;;;36.92;15.43;;;;;;;;;;5078624;28;20060;-66
2022/03/31 07:56:10;;;;;;;41.03;15.13;;;;;;;;;;5081331;28;20052;-66
2022/03/31 07:58:38;;;;;;;38.85;15.68;;;;;;;;;;5095746;28;20052;-66
2022/03/31 08:01:07;;;;;;;39.40;16.23;;;;;;;;;;5089564;28;20056;-66
2022/03/31 08:03:36;;;;;;;42.53;15.93;;;;;;;;;;5089458;28;20399;-66
2022/03/31 08:06:08;;;;;;;36.25;15.10;;;;;;;;;;5088912;28;20052;-66
2022/03/31 08:08:38;;;;;;;37.58;15.48;;;;;;;;;;5085884;28;20052;-66
2022/03/31 08:11:08;;;;;;;38.58;15.13;;;;;;;;;;5086848;28;20491;-66
2022/03/31 08:13:38;;;;;;;30.50;13.70;;;;;;;;;;5086317;28;20121;-66
2022/03/31 08:16:08;;;;;;;33.75;14.85;;;;;;;;;;5089985;28;20083;-66
2022/03/31 08:18:37;;;;;;;36.10;14.75;;;;;;;;;;5071662;28;20048;-66
2022/03/31 08:21:06;;;;;;;34.65;15.15;;;;;;;;;;5092654;28;20055;-65
2022/03/31 08:23:35;;;;;;;33.75;13.95;;;;;;;;;;5085166;28;20048;-66
2022/03/31 08:26:06;;;;;;;37.97;15.20;;;;;;;;;;5093826;28;20264;-66
2022/03/31 08:28:36;;;;;;;37.15;14.43;;;;;;;;;;5086191;28;20044;-66
2022/03/31 08:31:09;;;;;;;40.90;16.10;;;;;;;;;;5092786;28;20048;-66
2022/03/31 08:33:40;;;;;;;33.03;14.27;;;;;;;;;;5091975;28;20052;-66
2022/03/31 08:36:08;;;;;;;38.00;15.27;;;;;;;;;;5090140;28;20091;-66
2022/03/31 08:38:37;;;;;;;32.10;14.50;;;;;;;;;;5092785;28;20048;-66
2022/03/31 08:41:08;;;;;;;35.40;14.20;;;;;;;;;;5093208;28;20052;-66
2022/03/31 08:43:38;;;;;;;31.90;13.30;;;;;;;;;;5084786;28;20051;-66
2022/03/31 08:46:08;;;;;;;31.10;13.27;;;;;;;;;;5080848;28;20127;-65
2022/03/31 08:48:38;;;;;;;33.22;12.88;;;;;;;;;;5093003;28;20466;-66
2022/03/31 08:51:07;;;;;;;34.55;14.35;;;;;;;;;;5092462;28;20047;-66
2022/03/31 08:53:36;;;;;;;31.30;13.68;;;;;;;;;;5093176;28;20040;-66
2022/03/31 08:56:08;;;;;;;32.03;13.13;;;;;;;;;;5092898;28;20082;-65
2022/03/31 08:58:37;;;;;;;31.17;12.80;;;;;;;;;;5093135;28;20109;-66
2022/03/31 09:01:08;;;;;;;31.60;13.48;;;;;;;;;;5084086;28;20072;-65
2022/03/31 09:03:39;;;;;;;35.17;14.02;;;;;;;;;;5079497;28;20328;-65
2022/03/31 09:06:09;;;;;;;36.53;14.40;;;;;;;;;;5092097;28;20052;-66
2022/03/31 09:08:38;;;;;;;30.92;13.80;;;;;;;;;;5093140;28;20040;-65
2022/03/31 09:11:07;;;;;;;33.50;13.00;;;;;;;;;;5093009;28;20063;-65
2022/03/31 09:13:38;;;;;;;34.22;12.88;;;;;;;;;;5091173;28;20135;-66
2022/03/31 09:16:10;;;;;;;34.88;13.93;;;;;;;;;;5092757;28;20121;-66
2022/03/31 09:18:42;;;;;;;34.75;13.70;;;;;;;;;;5081568;28;20045;-65
2022/03/31 09:21:12;;;;;;;31.80;13.23;;;;;;;;;;5091525;28;20059;-66
2022/03/31 09:23:42;;;;;;;36.88;14.40;;;;;;;;;;5092872;28;20048;-66
2022/03/31 09:26:12;;;;;;;27.90;12.27;;;;;;;;;;5092074;28;20527;-66
2022/03/31 09:28:43;;;;;;;33.30;12.93;;;;;;;;;;5091686;28;20500;-66
2022/03/31 09:31:13;;;;;;;31.42;12.98;;;;;;;;;;5087315;28;20047;-65
2022/03/31 09:33:45;;;;;;;33.17;13.05;;;;;;;;;;5088639;28;20050;-65
2022/03/31 09:36:14;;;;;;;29.30;12.18;;;;;;;;;;5090169;28;20044;-66
2022/03/31 09:38:45;;;;;;;32.47;13.30;;;;;;;;;;5091789;28;20044;-66
2022/03/31 09:41:18;;;;;;;33.30;12.57;;;;;;;;;;5091236;28;20144;-66
2022/03/31 09:43:48;;;;;;;29.92;12.57;;;;;;;;;;5092014;28;20044;-65
2022/03/31 09:46:20;;;;;;;28.02;11.52;;;;;;;;;;5091532;28;20055;-65
2022/03/31 09:48:50;;;;;;;31.80;12.75;;;;;;;;;;5077190;28;20696;-65
2022/03/31 09:51:19;;;;;;;32.15;11.93;;;;;;;;;;5091345;28;20056;-66
2022/03/31 09:53:49;;;;;;;36.97;14.52;;;;;;;;;;5091313;28;20048;-65
2022/03/31 09:56:18;;;;;;;32.97;12.52;;;;;;;;;;5091750;28;20553;-65
2022/03/31 09:58:47;;;;;;;32.53;12.70;;;;;;;;;;5091411;28;20051;-66
2022/03/31 10:01:16;;;;;;;35.92;13.82;;;;;;;;;;5085244;28;20044;-66
2022/03/31 10:03:45;;;;;;;35.35;13.82;;;;;;;;;;5088289;28;20040;-65
2022/03/31 10:06:16;;;;;;;32.88;12.65;;;;;;;;;;5089785;28;20048;-66
2022/03/31 10:08:47;;;;;;;36.53;12.70;;;;;;;;;;5087806;28;20136;-66
2022/03/31 10:11:19;;;;;;;35.88;14.05;;;;;;;;;;5085056;28;20058;-65
2022/03/31 10:13:52;;;;;;;38.75;14.20;;;;;;;;;;5091213;28;20047;-65
2022/03/31 10:16:23;;;;;;;34.67;13.70;;;;;;;;;;5092090;28;20048;-66
2022/03/31 10:18:52;;;;;;;35.33;12.82;;;;;;;;;;5093018;28;20119;-65
2022/03/31 10:21:29;;;;;;;40.08;14.90;;;;;;;;;;5090631;28;20089;-65
2022/03/31 10:26:44;;;;;;;40.83;14.57;;;;;;;;;;5088485;28;20187;-65
2022/03/31 10:29:13;;;;;;;40.80;14.55;;;;;;;;;;5090876;28;20059;-65
2022/03/31 10:31:43;;;;;;;37.53;13.82;;;;;;;;;;5087575;28;20495;-66
2022/03/31 10:34:12;;;;;;;33.42;13.27;;;;;;;;;;5088248;28;20061;-65
2022/03/31 10:36:44;;;;;;;38.72;14.18;;;;;;;;;;5081352;28;20043;-65
2022/03/31 10:39:17;;;;;;;37.55;14.30;;;;;;;;;;5090887;28;20558;-65
2022/03/31 10:41:46;;;;;;;32.85;12.43;;;;;;;;;;5078885;28;20040;-65
2022/03/31 10:44:19;;;;;;;35.70;14.15;;;;;;;;;;5089118;28;20048;-65
2022/03/31 10:46:48;;;;;;;33.97;13.30;;;;;;;;;;5090767;28;20102;-65
2022/03/31 10:49:20;;;;;;;30.90;11.00;;;;;;;;;;5090203;28;20040;-64
2022/03/31 10:51:51;;;;;;;29.75;11.57;;;;;;;;;;5090373;28;20487;-65
2022/03/31 10:54:27;;;;;;;26.15;10.70;;;;;;;;;;5090289;28;20044;-65
2022/03/31 10:57:06;;;;;;;31.00;12.68;;;;;;;;;;5089904;28;20071;-65
2022/03/31 10:59:35;;;;;;;33.33;12.77;;;;;;;;;;5087850;28;20801;-65
2022/03/31 11:02:08;;;;;;;31.67;12.25;;;;;;;;;;5090583;28;20562;-65
2022/03/31 11:04:44;;;;;;;30.13;12.23;;;;;;;;;;5087782;28;20144;-65
2022/03/31 11:07:20;;;;;;;30.60;12.93;;;;;;;;;;5089894;28;20373;-65
2022/03/31 11:09:49;;;;;;;31.25;12.38;;;;;;;;;;5090644;28;20044;-64
2022/03/31 11:12:22;;;;;;;31.65;12.63;;;;;;;;;;5089873;28;20048;-65
2022/03/31 11:14:54;;;;;;;32.75;11.90;;;;;;;;;;5089783;28;20051;-65
2022/03/31 11:17:23;;;;;;;32.25;12.02;;;;;;;;;;5086570;28;20105;-65
2022/03/31 11:19:53;;;;;;;32.90;13.32;;;;;;;;;;5088065;28;20068;-65
2022/03/31 11:22:26;;;;;;;31.42;13.25;;;;;;;;;;5092361;28;20495;-66
2022/03/31 11:24:56;;;;;;;38.03;12.55;;;;;;;;;;5070376;28;20049;-66
2022/03/31 11:27:37;;;;;;;31.10;12.35;;;;;;;;;;5087124;28;20058;-65
2022/03/31 11:30:06;;;;;;;28.90;11.82;;;;;;;;;;5090076;28;20051;-66
2022/03/31 11:32:35;;;;;;;32.28;11.75;;;;;;;;;;5089466;28;20048;-66
2022/03/31 11:35:04;;;;;;;32.92;11.93;;;;;;;;;;5082621;28;20040;-66
2022/03/31 11:37:34;;;;;;;30.98;11.93;;;;;;;;;;5088138;28;20098;-66
2022/03/31 11:40:04;;;;;;;29.98;11.75;;;;;;;;;;5085407;28;20044;-66
2022/03/31 11:42:33;;;;;;;28.35;12.07;;;;;;;;;;5088452;28;20483;-66
2022/03/31 11:45:01;;;;;;;33.88;12.75;;;;;;;;;;5090747;28;20542;-66
2022/03/31 11:47:30;;;;;;;28.63;11.95;;;;;;;;;;5088760;28;20056;-66
2022/03/31 11:50:00;;;;;;;30.13;12.02;;;;;;;;;;5085867;28;20048;-65
2022/03/31 11:52:35;;;;;;;34.08;11.32;;;;;;;;;;5086521;28;20039;-65
2022/03/31 11:55:08;;;;;;;29.73;11.82;;;;;;;;;;5093170;28;20055;-65
2022/03/31 11:57:36;;;;;;;31.23;12.77;;;;;;;;;;5092768;28;20072;-65
2022/03/31 12:00:12;;;;;;;29.00;11.02;;;;;;;;;;5091405;28;20116;-65
2022/03/31 12:02:41;;;;;;;28.08;11.23;;;;;;;;;;5091530;28;20086;-65
2022/03/31 12:05:13;;;;;;;26.70;11.73;;;;;;;;;;5093993;28;20062;-65
2022/03/31 12:07:43;;;;;;;27.83;11.50;;;;;;;;;;5086235;28;20047;-66
2022/03/31 12:10:14;;;;;;;28.30;11.02;;;;;;;;;;5087350;28;20139;-66
2022/03/31 12:12:47;;;;;;;25.73;10.68;;;;;;;;;;5093852;28;20487;-66
2022/03/31 12:15:20;;;;;;;26.92;11.32;;;;;;;;;;5093846;28;20044;-66
2022/03/31 12:18:12;;;;;;;25.92;10.73;;;;;;;;;;5093236;28;20037;-65
2022/03/31 12:20:41;;;;;;;22.35;9.82;;;;;;;;;;5076260;28;20052;-65
2022/03/31 12:23:21;;;;;;;26.65;9.95;;;;;;;;;;5093972;28;20040;-65
2022/03/31 12:25:50;;;;;;;21.33;10.07;;;;;;;;;;5081447;28;20062;-66
2022/03/31 12:28:23;;;;;;;28.70;10.45;;;;;;;;;;5091035;28;20047;-65
2022/03/31 12:30:52;;;;;;;29.23;10.57;;;;;;;;;;5093800;28;20079;-65
2022/03/31 12:33:21;;;;;;;22.48;9.65;;;;;;;;;;5093355;28;20062;-65
2022/03/31 12:36:00;;;;;;;20.95;9.02;;;;;;;;;;5089742;28;20400;-65
2022/03/31 12:38:40;;;;;;;21.80;9.80;;;;;;;;;;5078875;28;20079;-65
2022/03/31 12:41:10;;;;;;;21.20;9.30;;;;;;;;;;5085639;28;20105;-65
2022/03/31 12:43:38;;;;;;;21.92;9.55;;;;;;;;;;5086386;28;20200;-66
2022/03/31 12:46:14;;;;;;;21.02;9.13;;;;;;;;;;5088362;28;20044;-66
2022/03/31 12:48:53;;;;;;;22.60;7.88;;;;;;;;;;5102927;28;20168;-65
2022/03/31 12:51:22;;;;;;;19.63;9.23;;;;;;;;;;5091268;28;20105;-65
2022/03/31 12:53:53;;;;;;;22.15;9.00;;;;;;;;;;5092440;28;20056;-66
2022/03/31 12:56:23;;;;;;;21.92;9.48;;;;;;;;;;5091985;28;20441;-65
2022/03/31 12:58:55;;;;;;;25.80;8.73;;;;;;;;;;5090229;28;20072;-66
2022/03/31 13:01:25;;;;;;;25.08;10.30;;;;;;;;;;5092994;28;20434;-65
2022/03/31 13:03:55;;;;;;;25.52;10.00;;;;;;;;;;5091562;28;20048;-66
2022/03/31 13:06:24;;;;;;;24.73;10.23;;;;;;;;;;5093198;28;20071;-65
2022/03/31 13:08:54;;;;;;;23.85;9.40;;;;;;;;;;5091561;28;20491;-65
2022/03/31 13:11:22;;;;;;;20.20;9.18;;;;;;;;;;5088981;28;20047;-65
2022/03/31 13:13:51;;;;;;;23.80;10.07;;;;;;;;;;5091680;28;20056;-64
2022/03/31 13:16:20;;;;;;;21.80;10.40;;;;;;;;;;5077866;28;20055;-65
2022/03/31 13:18:50;;;;;;;23.05;10.77;;;;;;;;;;5091892;28;20081;-64
2022/03/31 13:21:19;;;;;;;25.63;10.98;;;;;;;;;;5092223;28;20067;-65
2022/03/31 13:23:47;;;;;;;33.33;12.10;;;;;;;;;;5092071;28;20052;-66
2022/03/31 13:26:19;;;;;;;22.13;9.77;;;;;;;;;;5091683;28;20102;-65
2022/03/31 13:28:48;;;;;;;25.45;10.80;;;;;;;;;;5082607;28;20438;-65
2022/03/31 13:31:16;;;;;;;27.23;9.82;;;;;;;;;;5094887;28;20048;-66
2022/03/31 13:33:45;;;;;;;24.98;9.00;;;;;;;;;;5085661;28;20048;-66
2022/03/31 13:36:14;;;;;;;25.75;9.70;;;;;;;;;;5087184;28;20068;-66
2022/03/31 13:38:43;;;;;;;23.17;9.45;;;;;;;;;;5091855;28;20490;-66
2022/03/31 13:41:11;;;;;;;19.95;9.63;;;;;;;;;;5072671;28;20466;-66
2022/03/31 13:43:41;;;;;;;23.48;10.50;;;;;;;;;;5091457;28;20087;-65
2022/03/31 13:46:10;;;;;;;22.92;10.13;;;;;;;;;;5092223;28;20072;-66
2022/03/31 13:48:38;;;;;;;24.83;9.90;;;;;;;;;;5092632;28;20110;-66
2022/03/31 13:51:07;;;;;;;27.63;11.05;;;;;;;;;;5085612;28;20048;-66
2022/03/31 13:53:45;;;;;;;23.75;9.73;;;;;;;;;;5092547;28;20059;-66
2022/03/31 13:56:14;;;;;;;23.45;10.07;;;;;;;;;;5092121;28;20044;-65
2022/03/31 14:01:30;;;;;;;20.75;9.60;;;;;;;;;;5091347;28;20089;-66
2022/03/31 14:03:59;;;;;;;18.60;8.73;;;;;;;;;;5091387;28;20044;-65
2022/03/31 14:06:29;;;;;;;24.70;8.93;;;;;;;;;;5089711;28;20113;-66
2022/03/31 14:08:59;;;;;;;25.23;10.00;;;;;;;;;;5082701;28;20048;-65
2022/03/31 14:11:30;;;;;;;23.15;9.23;;;;;;;;;;5087976;28;20048;-66
2022/03/31 14:14:00;;;;;;;19.65;8.20;;;;;;;;;;5091797;28;20217;-66
2022/03/31 14:16:29;;;;;;;21.38;8.77;;;;;;;;;;5086887;28;20121;-66
2022/03/31 14:18:58;;;;;;;21.08;8.23;;;;;;;;;;5086189;28;20194;-67
2022/03/31 14:21:27;;;;;;;20.30;9.00;;;;;;;;;;5087885;28;20131;-66
2022/03/31 14:23:56;;;;;;;15.65;7.53;;;;;;;;;;5082883;28;20048;-66
2022/03/31 14:26:25;;;;;;;23.52;9.10;;;;;;;;;;5085077;28;20097;-67
2022/03/31 14:28:56;;;;;;;20.95;8.65;;;;;;;;;;5088047;28;20050;-66
2022/03/31 14:31:27;;;;;;;19.63;7.82;;;;;;;;;;5086174;28;20071;-66
2022/03/31 14:34:04;;;;;;;20.15;9.10;;;;;;;;;;5084236;28;20048;-66
2022/03/31 14:36:33;;;;;;;17.27;7.72;;;;;;;;;;5085957;28;20052;-66
2022/03/31 14:39:02;;;;;;;19.55;7.32;;;;;;;;;;5086280;28;20529;-66
2022/03/31 14:41:31;;;;;;;17.02;7.15;;;;;;;;;;5084715;28;20078;-66